createdAt,value
2022-07-30T00:00:31.099Z,3.45
2022-07-30T00:02:59.056Z,2.67
2022-07-30T00:05:27.087Z,3.38
2022-07-30T00:07:55.099Z,4.57
2022-07-30T00:10:24.087Z,3.13
2022-07-30T00:12:52.577Z,3.10
2022-07-30T00:15:21.959Z,2.95
2022-07-30T00:17:49.963Z,2.72
2022-07-30T00:20:18.499Z,3.20
2022-07-30T00:22:46.963Z,4.43
2022-07-30T00:25:15.073Z,4.57
2022-07-30T00:27:44.338Z,3.72
2022-07-30T00:30:13.286Z,3.10
2022-07-30T00:32:42.708Z,4.18
2022-07-30T00:35:12.051Z,3.15
2022-07-30T00:37:40.141Z,4.07
2022-07-30T00:40:10.113Z,3.65
2022-07-30T00:42:39.838Z,3.30
2022-07-30T00:45:09.282Z,2.95
2022-07-30T00:47:37.634Z,3.00
2022-07-30T00:50:09.789Z,2.60
2022-07-30T00:52:39.393Z,2.92
2022-07-30T00:55:09.721Z,3.33
2022-07-30T00:57:39.315Z,3.30
2022-07-30T01:00:10.372Z,3.13
2022-07-30T01:02:38.493Z,3.50
2022-07-30T01:05:09.069Z,3.33
2022-07-30T01:07:37.387Z,4.13
2022-07-30T01:10:06.506Z,3.10
2022-07-30T01:12:34.964Z,4.13
2022-07-30T01:15:05.935Z,5.18
2022-07-30T01:17:34.733Z,3.25
2022-07-30T01:20:08.146Z,3.25
2022-07-30T01:22:49.231Z,3.33
2022-07-30T01:25:25.711Z,5.65
2022-07-30T01:27:59.476Z,4.38
2022-07-30T01:30:30.907Z,4.40
2022-07-30T01:33:01.189Z,3.58
2022-07-30T01:35:31.920Z,3.75
2022-07-30T01:38:02.931Z,5.15
2022-07-30T01:40:32.403Z,3.67
2022-07-30T01:43:04.247Z,3.30
2022-07-30T01:45:41.382Z,3.63
2022-07-30T01:48:12.319Z,3.42
2022-07-30T01:50:45.862Z,4.05
2022-07-30T01:53:16.765Z,5.32
2022-07-30T01:55:46.368Z,4.53
2022-07-30T01:58:17.960Z,3.95
2022-07-30T02:00:47.554Z,3.88
2022-07-30T02:03:15.927Z,5.28
2022-07-30T02:05:51.970Z,3.72
2022-07-30T02:08:26.031Z,3.50
2022-07-30T02:11:03.011Z,3.50
2022-07-30T02:13:35.544Z,4.00
2022-07-30T02:16:12.097Z,3.70
2022-07-30T02:18:48.168Z,9.77
2022-07-30T02:21:18.888Z,3.55
2022-07-30T02:23:49.655Z,5.35
2022-07-30T02:26:22.305Z,3.95
2022-07-30T02:28:55.615Z,4.45
2022-07-30T02:31:28.108Z,3.67
2022-07-30T02:33:59.996Z,3.08
2022-07-30T02:36:29.552Z,3.40
2022-07-30T02:38:58.065Z,3.78
2022-07-30T02:41:29.507Z,4.07
2022-07-30T02:44:00.419Z,3.35
2022-07-30T02:46:29.779Z,3.40
2022-07-30T02:48:59.891Z,3.45
2022-07-30T02:51:30.053Z,4.38
2022-07-30T02:53:59.805Z,4.47
2022-07-30T02:56:30.376Z,3.85
2022-07-30T02:59:02.921Z,3.42
2022-07-30T03:01:34.182Z,3.00
2022-07-30T03:04:03.928Z,4.18
2022-07-30T03:06:33.936Z,4.55
2022-07-30T03:09:04.443Z,3.83
2022-07-30T03:11:34.211Z,3.60
2022-07-30T03:14:03.947Z,3.38
2022-07-30T03:16:35.529Z,3.85
2022-07-30T03:19:05.320Z,3.67
2022-07-30T03:21:36.620Z,5.43
2022-07-30T03:24:08.538Z,4.05
2022-07-30T03:26:37.779Z,5.13
2022-07-30T03:29:08.809Z,5.82
2022-07-30T03:31:39.959Z,5.70
2022-07-30T03:34:09.975Z,3.58
2022-07-30T03:36:41.725Z,3.58
2022-07-30T03:39:10.470Z,4.78
2022-07-30T03:41:40.263Z,4.07
2022-07-30T03:44:11.677Z,3.83
2022-07-30T03:46:41.699Z,4.93
2022-07-30T03:49:10.944Z,3.70
2022-07-30T03:51:42.591Z,4.07
2022-07-30T03:54:13.782Z,3.63
2022-07-30T03:56:42.387Z,5.35
2022-07-30T03:59:12.185Z,5.70
2022-07-30T04:01:40.368Z,4.38
2022-07-30T04:04:09.172Z,3.92
2022-07-30T04:06:39.778Z,4.32
2022-07-30T04:09:08.737Z,3.75
2022-07-30T04:11:40.721Z,5.45
2022-07-30T04:14:11.261Z,4.22
2022-07-30T04:16:45.717Z,3.50
2022-07-30T04:19:23.040Z,3.88
2022-07-30T04:21:53.830Z,4.25
2022-07-30T04:24:23.442Z,3.92
2022-07-30T04:26:52.880Z,4.45
2022-07-30T04:29:24.889Z,3.92
2022-07-30T04:31:54.019Z,4.75
2022-07-30T04:34:22.368Z,4.45
2022-07-30T04:36:50.484Z,4.72
2022-07-30T04:39:18.460Z,6.38
2022-07-30T04:41:48.904Z,4.70
2022-07-30T04:44:17.571Z,4.50
2022-07-30T04:46:47.143Z,4.57
2022-07-30T04:49:17.612Z,6.43
2022-07-30T04:51:46.849Z,5.43
2022-07-30T04:54:16.977Z,10.95
2022-07-30T04:56:50.534Z,7.35
2022-07-30T04:59:24.738Z,8.52
2022-07-30T05:01:57.630Z,6.90
2022-07-30T05:04:28.228Z,5.47
2022-07-30T05:06:58.605Z,5.43
2022-07-30T05:09:27.667Z,5.00
2022-07-30T05:11:56.966Z,8.32
2022-07-30T05:14:25.661Z,6.72
2022-07-30T05:16:56.088Z,7.57
2022-07-30T05:19:25.246Z,5.40
2022-07-30T05:21:53.970Z,6.97
2022-07-30T05:24:22.117Z,5.35
2022-07-30T05:26:50.290Z,4.88
2022-07-30T05:29:20.056Z,5.80
2022-07-30T05:31:48.982Z,9.68
2022-07-30T05:34:18.743Z,8.88
2022-07-30T05:36:46.846Z,4.85
2022-07-30T05:39:16.361Z,5.03
2022-07-30T05:41:44.634Z,6.22
2022-07-30T05:44:12.881Z,4.82
2022-07-30T05:46:41.127Z,5.65
2022-07-30T05:49:09.475Z,6.22
2022-07-30T05:51:40.369Z,4.63
2022-07-30T05:54:09.394Z,5.40
2022-07-30T05:56:37.800Z,7.85
2022-07-30T05:59:07.042Z,9.50
2022-07-30T06:01:35.135Z,5.78
2022-07-30T06:04:03.703Z,7.13
2022-07-30T06:06:31.785Z,5.47
2022-07-30T06:09:01.320Z,4.88
2022-07-30T06:11:29.563Z,7.18
2022-07-30T06:13:57.571Z,8.07
2022-07-30T06:16:25.695Z,6.75
2022-07-30T06:18:53.808Z,5.18
2022-07-30T06:21:21.993Z,6.68
2022-07-30T06:23:50.023Z,7.00
2022-07-30T06:26:19.500Z,7.55
2022-07-30T06:28:47.584Z,6.93
2022-07-30T06:31:16.118Z,7.90
2022-07-30T06:33:44.389Z,8.10
2022-07-30T06:36:14.254Z,5.50
2022-07-30T06:38:42.792Z,6.60
2022-07-30T06:41:11.196Z,6.45
2022-07-30T06:43:40.873Z,4.20
2022-07-30T06:46:09.100Z,5.90
2022-07-30T06:48:37.831Z,7.20
2022-07-30T06:51:06.087Z,4.40
2022-07-30T06:53:35.735Z,4.10
2022-07-30T06:56:13.047Z,5.47
2022-07-30T06:58:42.719Z,4.40
2022-07-30T07:01:11.597Z,5.40
2022-07-30T07:03:40.793Z,4.25
2022-07-30T07:06:10.035Z,4.30
2022-07-30T07:08:38.645Z,5.75
2022-07-30T07:11:06.660Z,5.53
2022-07-30T07:13:34.681Z,6.93
2022-07-30T07:16:04.445Z,4.45
2022-07-30T07:18:32.503Z,4.70
2022-07-30T07:21:00.540Z,4.40
2022-07-30T07:23:39.872Z,4.60
2022-07-30T07:26:11.576Z,4.15
2022-07-30T07:28:41.116Z,7.20
2022-07-30T07:31:11.633Z,5.05
2022-07-30T07:34:00.806Z,5.13
2022-07-30T07:36:28.926Z,4.43
2022-07-30T07:38:57.034Z,4.45
2022-07-30T07:41:26.266Z,3.92
2022-07-30T07:43:54.704Z,4.00
2022-07-30T07:46:33.433Z,7.97
2022-07-30T07:49:02.786Z,4.07
2022-07-30T07:51:47.166Z,6.80
2022-07-30T07:54:23.613Z,6.70
2022-07-30T07:56:53.338Z,6.82
2022-07-30T07:59:21.884Z,3.67
2022-07-30T08:01:52.528Z,4.20
2022-07-30T08:04:20.826Z,4.20
2022-07-30T08:06:48.985Z,6.13
2022-07-30T08:09:17.094Z,6.78
2022-07-30T08:11:45.294Z,4.55
2022-07-30T08:14:13.317Z,4.45
2022-07-30T08:16:41.354Z,7.97
2022-07-30T08:19:11.246Z,5.15
2022-07-30T08:21:39.466Z,6.70
2022-07-30T08:24:08.884Z,4.13
2022-07-30T08:26:37.334Z,6.80
2022-07-30T08:29:05.534Z,4.55
2022-07-30T08:31:33.725Z,4.50
2022-07-30T08:34:01.835Z,3.80
2022-07-30T08:36:31.294Z,5.10
2022-07-30T08:38:59.317Z,3.97
2022-07-30T08:41:28.665Z,4.47
2022-07-30T08:43:58.319Z,3.75
2022-07-30T08:46:29.114Z,3.65
2022-07-30T08:48:57.578Z,6.13
2022-07-30T08:51:26.160Z,5.53
2022-07-30T08:53:57.941Z,5.53
2022-07-30T08:56:26.385Z,3.90
2022-07-30T08:58:54.641Z,4.03
2022-07-30T09:01:23.842Z,5.07
2022-07-30T09:03:51.964Z,4.80
2022-07-30T09:06:20.188Z,3.97
2022-07-30T09:08:48.411Z,4.10
2022-07-30T09:11:18.146Z,4.90
2022-07-30T09:13:46.313Z,3.70
2022-07-30T09:16:22.371Z,4.60
2022-07-30T09:18:51.003Z,5.43
2022-07-30T09:21:23.326Z,3.78
2022-07-30T09:23:59.524Z,3.90
2022-07-30T09:26:29.876Z,4.05
2022-07-30T09:29:16.914Z,4.32
2022-07-30T09:31:55.646Z,3.80
2022-07-30T09:34:28.469Z,3.80
2022-07-30T09:36:57.779Z,4.22
2022-07-30T09:39:33.988Z,4.90
2022-07-30T09:42:05.507Z,4.25
2022-07-30T09:44:33.682Z,3.85
2022-07-30T09:47:03.072Z,4.38
2022-07-30T09:49:31.616Z,3.75
2022-07-30T09:51:59.990Z,4.85
2022-07-30T09:54:51.163Z,5.97
2022-07-30T09:57:57.753Z,3.65
2022-07-30T10:00:28.560Z,4.25
2022-07-30T10:02:56.935Z,4.07
2022-07-30T10:05:25.556Z,3.67
2022-07-30T10:07:57.782Z,3.70
2022-07-30T10:10:28.010Z,3.70
2022-07-30T10:13:00.956Z,5.68
2022-07-30T10:15:32.799Z,3.75
2022-07-30T10:18:06.363Z,4.07
2022-07-30T10:20:35.280Z,5.22
2022-07-30T10:23:09.095Z,5.18
2022-07-30T10:25:54.710Z,3.92
2022-07-30T10:28:25.825Z,4.43
2022-07-30T10:30:56.667Z,5.03
2022-07-30T10:33:34.644Z,4.07
2022-07-30T10:36:05.773Z,4.80
2022-07-30T10:38:41.901Z,4.10
2022-07-30T10:41:44.179Z,5.13
2022-07-30T10:44:39.094Z,4.75
2022-07-30T10:47:11.406Z,4.00
2022-07-30T10:49:41.059Z,4.32
2022-07-30T10:52:12.123Z,5.40
2022-07-30T10:54:42.849Z,5.55
2022-07-30T10:57:14.958Z,5.88
2022-07-30T11:00:17.682Z,4.60
2022-07-30T11:03:17.257Z,4.75
2022-07-30T11:05:48.625Z,4.07
2022-07-30T11:08:36.757Z,4.10
2022-07-30T11:11:19.511Z,4.25
2022-07-30T11:13:57.624Z,4.22
2022-07-30T11:17:00.452Z,4.35
2022-07-30T11:19:55.946Z,4.30
2022-07-30T11:22:26.011Z,4.28
2022-07-30T11:24:54.759Z,4.28
2022-07-30T11:27:42.214Z,4.35
2022-07-30T11:30:34.953Z,4.40
2022-07-30T11:33:32.057Z,4.22
2022-07-30T11:36:12.656Z,4.45
2022-07-30T11:39:06.795Z,4.78
2022-07-30T11:41:35.469Z,5.07
2022-07-30T11:44:27.653Z,4.45
2022-07-30T11:46:56.693Z,4.30
2022-07-30T11:49:27.586Z,4.10
2022-07-30T11:51:56.017Z,3.97
2022-07-30T11:54:24.165Z,4.70
2022-07-30T11:56:53.640Z,4.40
2022-07-30T11:59:22.012Z,4.88
2022-07-30T12:01:56.919Z,4.80
2022-07-30T12:04:26.968Z,4.60
2022-07-30T12:06:55.088Z,4.65
2022-07-30T12:09:27.498Z,5.32
2022-07-30T12:11:56.666Z,5.20
2022-07-30T12:14:24.741Z,5.22
2022-07-30T12:16:53.976Z,4.80
2022-07-30T12:19:22.654Z,5.18
2022-07-30T12:21:53.566Z,4.38
2022-07-30T12:24:27.469Z,4.97
2022-07-30T12:27:06.465Z,4.63
2022-07-30T12:29:35.827Z,4.45
2022-07-30T12:32:06.209Z,4.80
2022-07-30T12:34:34.280Z,4.35
2022-07-30T12:37:10.688Z,5.00
2022-07-30T12:39:38.737Z,4.60
2022-07-30T12:42:09.175Z,4.68
2022-07-30T12:44:39.320Z,4.40
2022-07-30T12:47:19.155Z,4.20
2022-07-30T12:49:49.606Z,4.53
2022-07-30T12:52:28.787Z,4.60
2022-07-30T12:55:01.987Z,3.95
2022-07-30T12:57:30.238Z,4.88
2022-07-30T13:00:08.675Z,5.45
2022-07-30T13:02:37.470Z,4.40
2022-07-30T13:05:10.589Z,4.15
2022-07-30T13:07:57.275Z,4.00
2022-07-30T13:10:30.487Z,4.38
2022-07-30T13:12:59.413Z,4.50
2022-07-30T13:15:27.528Z,4.40
2022-07-30T13:17:55.509Z,5.32
2022-07-30T13:20:24.112Z,4.55
2022-07-30T13:22:52.090Z,4.30
2022-07-30T13:25:21.761Z,4.43
2022-07-30T13:27:50.089Z,4.22
2022-07-30T13:30:18.131Z,4.50
2022-07-30T13:32:46.298Z,4.18
2022-07-30T13:35:15.229Z,4.28
2022-07-30T13:37:43.374Z,5.03
2022-07-30T13:40:11.969Z,6.53
2022-07-30T13:42:41.592Z,5.30
2022-07-30T13:45:10.768Z,4.93
2022-07-30T13:47:38.843Z,5.03
2022-07-30T13:50:07.560Z,5.03
2022-07-30T13:52:35.546Z,4.45
2022-07-30T13:55:03.661Z,4.75
2022-07-30T13:57:34.015Z,5.18
2022-07-30T14:00:03.577Z,4.70
2022-07-30T14:02:32.612Z,4.57
2022-07-30T14:05:06.896Z,4.20
2022-07-30T14:07:35.448Z,4.05
2022-07-30T14:10:04.184Z,4.40
2022-07-30T14:12:32.293Z,5.28
2022-07-30T14:15:00.312Z,4.50
2022-07-30T14:17:29.826Z,4.82
2022-07-30T14:20:00.411Z,4.60
2022-07-30T14:22:28.579Z,5.60
2022-07-30T14:24:56.739Z,4.47
2022-07-30T14:27:24.792Z,4.80
2022-07-30T14:29:52.873Z,4.85
2022-07-30T14:32:20.858Z,4.55
2022-07-30T14:34:53.086Z,5.10
2022-07-30T14:37:21.371Z,5.18
2022-07-30T14:39:49.408Z,6.18
2022-07-30T14:42:18.119Z,7.53
2022-07-30T14:44:46.329Z,5.88
2022-07-30T14:47:14.772Z,5.95
2022-07-30T14:49:42.900Z,7.05
2022-07-30T14:52:12.858Z,7.95
2022-07-30T14:54:40.920Z,8.02
2022-07-30T14:57:11.131Z,7.10
2022-07-30T14:59:39.256Z,7.68
2022-07-30T15:02:10.497Z,6.80
2022-07-30T15:04:39.033Z,5.80
2022-07-30T15:07:07.132Z,6.38
2022-07-30T15:09:36.870Z,6.53
2022-07-30T15:12:23.785Z,7.85
2022-07-30T15:14:53.135Z,6.75
2022-07-30T15:17:21.281Z,6.45
2022-07-30T15:19:51.061Z,7.18
2022-07-30T15:22:22.522Z,5.72
2022-07-30T15:24:51.973Z,6.30
2022-07-30T15:27:22.403Z,5.70
2022-07-30T15:29:55.809Z,5.63
2022-07-30T15:32:23.821Z,4.78
2022-07-30T15:34:51.878Z,5.25
2022-07-30T15:37:23.271Z,4.95
2022-07-30T15:39:52.848Z,5.13
2022-07-30T15:42:20.859Z,4.43
2022-07-30T15:44:49.495Z,4.47
2022-07-30T15:47:29.588Z,4.65
2022-07-30T15:49:57.890Z,4.20
2022-07-30T15:52:26.102Z,3.55
2022-07-30T15:54:56.021Z,4.25
2022-07-30T15:57:25.515Z,3.38
2022-07-30T15:59:53.521Z,2.95
2022-07-30T16:02:21.711Z,3.22
2022-07-30T16:04:49.828Z,2.88
2022-07-30T16:07:21.204Z,2.95
2022-07-30T16:09:50.048Z,5.03
2022-07-30T16:12:19.673Z,4.40
2022-07-30T16:14:47.834Z,4.07
2022-07-30T16:17:16.593Z,4.40
2022-07-30T16:19:45.353Z,6.00
2022-07-30T16:22:14.947Z,5.32
2022-07-30T16:24:50.227Z,5.55
2022-07-30T16:27:20.258Z,5.75
2022-07-30T16:29:49.723Z,5.38
2022-07-30T16:32:17.744Z,4.97
2022-07-30T16:34:46.217Z,5.05
2022-07-30T16:37:15.309Z,5.60
2022-07-30T16:39:43.310Z,4.90
2022-07-30T16:42:11.901Z,5.13
2022-07-30T16:44:41.338Z,5.28
2022-07-30T16:47:13.595Z,6.03
2022-07-30T16:49:42.067Z,5.63
2022-07-30T16:52:10.237Z,6.30
2022-07-30T16:54:38.372Z,7.07
2022-07-30T16:57:10.533Z,8.25
2022-07-30T16:59:43.561Z,6.85
2022-07-30T17:02:13.525Z,6.03
2022-07-30T17:04:41.654Z,6.43
2022-07-30T17:07:15.311Z,6.40
2022-07-30T17:09:43.829Z,6.65
2022-07-30T17:12:23.968Z,7.15
2022-07-30T17:14:54.986Z,7.47
2022-07-30T17:17:25.002Z,7.40
2022-07-30T17:19:54.170Z,9.77
2022-07-30T17:22:23.346Z,6.90
2022-07-30T17:24:52.271Z,8.73
2022-07-30T17:27:22.043Z,6.97
2022-07-30T17:29:50.883Z,6.38
2022-07-30T17:32:20.198Z,6.88
2022-07-30T17:34:50.432Z,8.75
2022-07-30T17:37:18.512Z,8.38
2022-07-30T17:40:19.189Z,6.40
2022-07-30T17:42:40.175Z,10.95
2022-07-30T17:45:10.070Z,6.65
2022-07-30T17:47:38.194Z,6.45
2022-07-30T17:50:09.144Z,6.28
2022-07-30T17:52:39.802Z,6.32
2022-07-30T17:55:11.335Z,5.50
2022-07-30T17:57:40.478Z,5.85
2022-07-30T18:00:10.740Z,5.82
2022-07-30T18:02:39.086Z,5.97
2022-07-30T18:05:11.160Z,5.55
2022-07-30T18:07:39.223Z,5.43
2022-07-30T18:10:08.400Z,6.10
2022-07-30T18:12:36.551Z,5.60
2022-07-30T18:15:08.405Z,6.38
2022-07-30T18:17:36.486Z,6.18
2022-07-30T18:20:05.526Z,6.82
2022-07-30T18:22:35.085Z,6.82
2022-07-30T18:25:07.526Z,7.15
2022-07-30T18:27:35.992Z,6.90
2022-07-30T18:30:05.012Z,7.40
2022-07-30T18:47:45.754Z,15.75
2022-07-30T18:50:15.835Z,17.13
2022-07-30T18:52:44.047Z,18.13
2022-07-30T18:55:12.776Z,19.50
2022-07-30T18:57:41.493Z,18.00
2022-07-30T19:00:34.573Z,18.88
2022-07-30T19:03:02.194Z,18.20
2022-07-30T19:05:30.259Z,19.05
2022-07-30T19:07:59.055Z,19.02
2022-07-30T19:10:27.579Z,17.77
2022-07-30T19:12:55.991Z,19.77
2022-07-30T19:15:24.154Z,18.08
2022-07-30T19:17:52.326Z,18.42
2022-07-30T19:20:23.329Z,19.08
2022-07-30T19:22:53.267Z,18.65
2022-07-30T19:25:21.287Z,20.98
2022-07-30T19:27:49.362Z,19.98
2022-07-30T19:30:17.416Z,21.00
2022-07-30T19:32:45.853Z,20.75
2022-07-30T19:35:14.639Z,21.48
2022-07-30T19:37:44.258Z,21.15
2022-07-30T19:40:13.459Z,21.83
2022-07-30T19:42:41.919Z,20.23
2022-07-30T19:45:13.286Z,19.88
2022-07-30T19:47:42.291Z,19.45
2022-07-30T19:50:29.433Z,17.77
2022-07-30T19:52:59.331Z,19.38
2022-07-30T19:55:35.855Z,22.92
2022-07-30T19:58:05.270Z,21.92
2022-07-30T20:00:48.483Z,21.85
2022-07-30T20:03:25.286Z,19.73
2022-07-30T20:05:57.255Z,19.50
2022-07-30T20:08:28.957Z,20.25
2022-07-30T20:10:59.328Z,21.70
2022-07-30T20:13:44.454Z,20.13
2022-07-30T20:16:14.381Z,21.75
2022-07-30T20:18:44.490Z,26.75
2022-07-30T20:21:16.071Z,19.65
2022-07-30T20:23:46.415Z,18.38
2022-07-30T20:26:15.939Z,17.75
2022-07-30T20:28:45.761Z,18.60
2022-07-30T20:31:14.008Z,17.35
2022-07-30T20:33:43.409Z,17.33
2022-07-30T20:36:18.289Z,16.02
2022-07-30T20:38:49.318Z,18.42
2022-07-30T20:41:17.502Z,15.30
2022-07-30T20:43:52.380Z,16.00
2022-07-30T20:46:23.665Z,14.98
2022-07-30T20:48:52.810Z,15.02
2022-07-30T20:51:21.015Z,13.68
2022-07-30T20:53:50.465Z,12.15
2022-07-30T20:56:19.513Z,12.30
2022-07-30T20:58:48.410Z,11.20
2022-07-30T21:01:17.923Z,11.15
2022-07-30T21:03:47.612Z,12.23
2022-07-30T21:06:16.418Z,11.50
2022-07-30T21:08:44.456Z,11.93
2022-07-30T21:11:14.531Z,16.77
2022-07-30T21:13:42.700Z,14.35
2022-07-30T21:16:15.791Z,9.40
2022-07-30T21:18:50.047Z,9.20
2022-07-30T21:21:38.288Z,9.88
2022-07-30T21:24:11.286Z,11.05
2022-07-30T21:26:41.877Z,7.45
2022-07-30T21:29:10.404Z,6.63
2022-07-30T21:32:00.605Z,5.90
2022-07-30T21:34:30.896Z,6.38
2022-07-30T21:37:03.509Z,7.00
2022-07-30T21:39:31.583Z,9.15
2022-07-30T21:42:10.032Z,9.70
2022-07-30T21:44:38.511Z,8.90
2022-07-30T21:47:08.376Z,9.68
2022-07-30T21:49:38.959Z,10.80
2022-07-30T21:52:08.481Z,12.00
2022-07-30T21:54:45.231Z,13.32
2022-07-30T21:57:26.193Z,14.65
2022-07-30T21:59:55.087Z,14.07
2022-07-30T22:02:23.792Z,14.80
2022-07-30T22:04:51.927Z,15.05
2022-07-30T22:07:21.796Z,14.20
2022-07-30T22:09:50.337Z,15.10
2022-07-30T22:12:19.989Z,15.48
2022-07-30T22:14:49.575Z,17.40
2022-07-30T22:17:23.564Z,17.45
2022-07-30T22:20:08.402Z,16.73
2022-07-30T22:22:37.701Z,13.75
2022-07-30T22:25:09.840Z,16.40
2022-07-30T22:27:56.398Z,14.70
2022-07-30T22:30:27.656Z,13.30
2022-07-30T22:32:56.147Z,13.88
2022-07-30T22:35:32.201Z,13.60
2022-07-30T22:38:02.221Z,14.38
2022-07-30T22:40:30.830Z,14.85
2022-07-30T22:43:00.245Z,15.02
2022-07-30T22:45:46.846Z,15.35
2022-07-30T22:48:19.278Z,15.82
2022-07-30T22:50:52.369Z,17.02
2022-07-30T22:54:02.676Z,18.02
2022-07-30T22:56:14.245Z,17.58
2022-07-30T22:58:48.641Z,17.55
2022-07-30T23:01:16.898Z,18.75
2022-07-30T23:03:45.038Z,16.38
2022-07-30T23:06:14.702Z,16.15
2022-07-30T23:08:44.182Z,17.15
2022-07-30T23:11:12.213Z,18.73
2022-07-30T23:13:40.543Z,18.77
2022-07-30T23:16:10.072Z,18.13
2022-07-30T23:18:38.240Z,18.65
2022-07-30T23:21:06.332Z,18.67
2022-07-30T23:23:35.735Z,16.13
2022-07-30T23:26:03.993Z,14.95
2022-07-30T23:28:32.243Z,16.67
2022-07-30T23:31:00.349Z,13.93
2022-07-30T23:33:29.811Z,15.00
2022-07-30T23:36:00.178Z,14.10
2022-07-30T23:38:28.858Z,14.20
2022-07-30T23:41:01.198Z,13.27
2022-07-30T23:43:29.184Z,15.20
2022-07-30T23:45:57.301Z,15.50
2022-07-30T23:48:25.326Z,14.60
2022-07-30T23:50:54.843Z,13.93
2022-07-30T23:53:22.886Z,14.75
2022-07-30T23:55:51.598Z,16.13
2022-07-30T23:58:19.633Z,16.27
